Terminal Aerodrome Forecast
Issued by NWS

Home | Current Version | Previous Version | Text Only | Print | Product List | Glossary On
Versions: 1 2 3 4 5 6 7 8 9 10 11 12 13 14 15 16 17 18 19 20 21 22 23 24
690
FTUS46 KEKA 231721
TAFCEC
TAF
KCEC 231721Z 2318/2418 16011KT P6SM BKN050 OVC100
     FM232000 16020G32KT P6SM OVC050
     FM232300 17025G35KT 6SM -RA BR FEW025 OVC040 WS020/17050KT
     FM240600 17025G35KT 4SM RA BR BKN020 OVC040 WS020/17050KT
     FM241100 17015G27KT 4SM RA BR BKN015 OVC030
     FM241500 17010KT 4SM RA BR BKN010 OVC020=

USA.gov is the U.S. government's official web portal to all federal, state and local government web resources and services.